sensor_id;sensor_type;location;lat;lon;timestamp;temperature;humidity
22161;DHT22;49035;48.812;11.762;2023-08-08T00:01:50;7.90;99.90
22161;DHT22;49035;48.812;11.762;2023-08-08T00:04:15;7.90;99.90
22161;DHT22;49035;48.812;11.762;2023-08-08T00:06:41;7.90;99.90
22161;DHT22;49035;48.812;11.762;2023-08-08T00:09:07;7.90;99.90
22161;DHT22;49035;48.812;11.762;2023-08-08T00:11:32;8.00;99.90
22161;DHT22;49035;48.812;11.762;2023-08-08T00:13:58;8.10;99.90
22161;DHT22;49035;48.812;11.762;2023-08-08T00:16:24;8.10;99.90
22161;DHT22;49035;48.812;11.762;2023-08-08T00:18:49;8.20;99.90
22161;DHT22;49035;48.812;11.762;2023-08-08T00:21:17;8.30;99.90
22161;DHT22;49035;48.812;11.762;2023-08-08T00:23:43;8.30;99.90
22161;DHT22;49035;48.812;11.762;2023-08-08T00:26:08;8.30;99.90
22161;DHT22;49035;48.812;11.762;2023-08-08T00:28:34;8.30;99.90
22161;DHT22;49035;48.812;11.762;2023-08-08T00:31:00;8.30;99.90
22161;DHT22;49035;48.812;11.762;2023-08-08T00:33:25;8.30;99.90
22161;DHT22;49035;48.812;11.762;2023-08-08T00:35:51;8.40;99.90
22161;DHT22;49035;48.812;11.762;2023-08-08T00:38:16;8.50;99.90
22161;DHT22;49035;48.812;11.762;2023-08-08T00:40:44;8.50;99.90
22161;DHT22;49035;48.812;11.762;2023-08-08T00:43:09;8.50;99.90
22161;DHT22;49035;48.812;11.762;2023-08-08T00:45:35;8.50;99.90
22161;DHT22;49035;48.812;11.762;2023-08-08T00:48:01;8.50;99.90
22161;DHT22;49035;48.812;11.762;2023-08-08T00:50:27;8.50;99.90
22161;DHT22;49035;48.812;11.762;2023-08-08T00:52:53;8.60;99.90
22161;DHT22;49035;48.812;11.762;2023-08-08T00:55:18;8.50;99.90
22161;DHT22;49035;48.812;11.762;2023-08-08T00:57:45;8.50;99.90
22161;DHT22;49035;48.812;11.762;2023-08-08T01:00:11;8.50;99.90
22161;DHT22;49035;48.812;11.762;2023-08-08T01:02:37;8.50;99.90
22161;DHT22;49035;48.812;11.762;2023-08-08T01:05:04;8.60;99.90
22161;DHT22;49035;48.812;11.762;2023-08-08T01:07:30;8.70;99.90
22161;DHT22;49035;48.812;11.762;2023-08-08T01:12:38;8.80;99.90
22161;DHT22;49035;48.812;11.762;2023-08-08T01:15:07;8.80;99.90
22161;DHT22;49035;48.812;11.762;2023-08-08T01:17:35;9.00;99.90
22161;DHT22;49035;48.812;11.762;2023-08-08T01:20:03;9.20;99.90
22161;DHT22;49035;48.812;11.762;2023-08-08T01:22:39;9.40;99.90
22161;DHT22;49035;48.812;11.762;2023-08-08T01:25:06;9.40;99.90
22161;DHT22;49035;48.812;11.762;2023-08-08T01:27:33;9.50;99.90
22161;DHT22;49035;48.812;11.762;2023-08-08T01:29:59;9.50;99.90
22161;DHT22;49035;48.812;11.762;2023-08-08T01:32:25;9.60;99.90
22161;DHT22;49035;48.812;11.762;2023-08-08T01:34:50;9.60;99.90
22161;DHT22;49035;48.812;11.762;2023-08-08T01:37:57;9.60;99.90
22161;DHT22;49035;48.812;11.762;2023-08-08T01:40:25;9.60;99.90
22161;DHT22;49035;48.812;11.762;2023-08-08T01:42:51;9.50;99.90
22161;DHT22;49035;48.812;11.762;2023-08-08T01:45:17;9.50;99.90
22161;DHT22;49035;48.812;11.762;2023-08-08T01:47:49;9.50;99.90
22161;DHT22;49035;48.812;11.762;2023-08-08T01:50:15;9.50;99.90
22161;DHT22;49035;48.812;11.762;2023-08-08T01:52:41;9.50;99.90
22161;DHT22;49035;48.812;11.762;2023-08-08T01:55:07;9.50;99.90
22161;DHT22;49035;48.812;11.762;2023-08-08T01:57:33;9.50;99.90
22161;DHT22;49035;48.812;11.762;2023-08-08T01:59:58;9.50;99.90
22161;DHT22;49035;48.812;11.762;2023-08-08T02:02:24;9.50;99.90
22161;DHT22;49035;48.812;11.762;2023-08-08T02:04:49;9.60;99.90
22161;DHT22;49035;48.812;11.762;2023-08-08T02:07:15;9.60;99.90
22161;DHT22;49035;48.812;11.762;2023-08-08T02:09:41;9.60;99.90
22161;DHT22;49035;48.812;11.762;2023-08-08T02:12:07;9.70;99.90
22161;DHT22;49035;48.812;11.762;2023-08-08T02:14:33;9.60;99.90
22161;DHT22;49035;48.812;11.762;2023-08-08T02:16:58;9.60;99.90
22161;DHT22;49035;48.812;11.762;2023-08-08T02:19:24;9.60;99.90
22161;DHT22;49035;48.812;11.762;2023-08-08T02:21:49;9.70;99.90
22161;DHT22;49035;48.812;11.762;2023-08-08T02:24:15;9.70;99.90
22161;DHT22;49035;48.812;11.762;2023-08-08T02:26:40;9.70;99.90
22161;DHT22;49035;48.812;11.762;2023-08-08T02:29:06;9.70;99.90
22161;DHT22;49035;48.812;11.762;2023-08-08T02:31:31;9.70;99.90
22161;DHT22;49035;48.812;11.762;2023-08-08T02:33:57;9.70;99.90
22161;DHT22;49035;48.812;11.762;2023-08-08T02:36:22;9.80;99.90
22161;DHT22;49035;48.812;11.762;2023-08-08T02:38:48;9.90;99.90
22161;DHT22;49035;48.812;11.762;2023-08-08T02:41:15;9.90;99.90
22161;DHT22;49035;48.812;11.762;2023-08-08T02:43:40;9.80;99.90
22161;DHT22;49035;48.812;11.762;2023-08-08T02:46:06;9.90;99.90
22161;DHT22;49035;48.812;11.762;2023-08-08T02:48:32;9.90;99.90
22161;DHT22;49035;48.812;11.762;2023-08-08T02:50:57;9.90;99.90
22161;DHT22;49035;48.812;11.762;2023-08-08T02:53:23;9.90;99.90
22161;DHT22;49035;48.812;11.762;2023-08-08T02:55:49;10.00;99.90
22161;DHT22;49035;48.812;11.762;2023-08-08T02:58:14;10.00;99.90
22161;DHT22;49035;48.812;11.762;2023-08-08T03:00:40;10.10;99.90
22161;DHT22;49035;48.812;11.762;2023-08-08T03:03:05;10.00;99.90
22161;DHT22;49035;48.812;11.762;2023-08-08T03:05:31;10.00;99.90
22161;DHT22;49035;48.812;11.762;2023-08-08T03:07:56;10.00;99.90
22161;DHT22;49035;48.812;11.762;2023-08-08T03:10:23;10.00;99.90
22161;DHT22;49035;48.812;11.762;2023-08-08T03:12:48;10.00;99.90
22161;DHT22;49035;48.812;11.762;2023-08-08T03:15:14;10.10;99.90
22161;DHT22;49035;48.812;11.762;2023-08-08T03:17:40;10.10;99.90
22161;DHT22;49035;48.812;11.762;2023-08-08T03:20:06;10.10;99.90
22161;DHT22;49035;48.812;11.762;2023-08-08T03:22:32;10.10;99.90
22161;DHT22;49035;48.812;11.762;2023-08-08T03:24:58;10.10;99.90
22161;DHT22;49035;48.812;11.762;2023-08-08T03:27:24;10.20;99.90
22161;DHT22;49035;48.812;11.762;2023-08-08T03:29:50;10.10;99.90
22161;DHT22;49035;48.812;11.762;2023-08-08T03:32:16;10.10;99.90
22161;DHT22;49035;48.812;11.762;2023-08-08T03:34:41;10.10;99.90
22161;DHT22;49035;48.812;11.762;2023-08-08T03:37:07;10.20;99.90
22161;DHT22;49035;48.812;11.762;2023-08-08T03:39:32;10.20;99.90
22161;DHT22;49035;48.812;11.762;2023-08-08T03:41:58;10.20;99.90
22161;DHT22;49035;48.812;11.762;2023-08-08T03:44:24;10.30;99.90
22161;DHT22;49035;48.812;11.762;2023-08-08T03:46:49;10.30;99.90
22161;DHT22;49035;48.812;11.762;2023-08-08T03:49:16;10.30;99.90
22161;DHT22;49035;48.812;11.762;2023-08-08T03:51:41;10.30;99.90
22161;DHT22;49035;48.812;11.762;2023-08-08T03:54:07;10.30;99.90
22161;DHT22;49035;48.812;11.762;2023-08-08T03:56:33;10.20;99.90
22161;DHT22;49035;48.812;11.762;2023-08-08T03:58:59;10.20;99.90
22161;DHT22;49035;48.812;11.762;2023-08-08T04:01:24;10.20;99.90
22161;DHT22;49035;48.812;11.762;2023-08-08T04:03:50;10.20;99.90
22161;DHT22;49035;48.812;11.762;2023-08-08T04:06:15;10.20;99.90
22161;DHT22;49035;48.812;11.762;2023-08-08T04:08:41;10.20;99.90
22161;DHT22;49035;48.812;11.762;2023-08-08T04:11:06;10.10;99.90
22161;DHT22;49035;48.812;11.762;2023-08-08T04:13:32;10.10;99.90
22161;DHT22;49035;48.812;11.762;2023-08-08T04:15:58;10.00;99.90
22161;DHT22;49035;48.812;11.762;2023-08-08T04:18:23;9.90;99.90
22161;DHT22;49035;48.812;11.762;2023-08-08T04:20:49;9.90;99.90
22161;DHT22;49035;48.812;11.762;2023-08-08T04:23:14;9.70;99.90
22161;DHT22;49035;48.812;11.762;2023-08-08T04:25:40;9.70;99.90
22161;DHT22;49035;48.812;11.762;2023-08-08T04:28:05;9.70;99.90
22161;DHT22;49035;48.812;11.762;2023-08-08T04:30:31;9.70;99.90
22161;DHT22;49035;48.812;11.762;2023-08-08T04:32:57;9.60;99.90
22161;DHT22;49035;48.812;11.762;2023-08-08T04:35:22;9.60;99.90
22161;DHT22;49035;48.812;11.762;2023-08-08T04:37:48;9.70;99.90
22161;DHT22;49035;48.812;11.762;2023-08-08T04:40:13;9.90;99.90
22161;DHT22;49035;48.812;11.762;2023-08-08T04:42:40;10.00;99.90
22161;DHT22;49035;48.812;11.762;2023-08-08T04:45:06;10.10;99.90
22161;DHT22;49035;48.812;11.762;2023-08-08T04:47:32;10.20;99.90
22161;DHT22;49035;48.812;11.762;2023-08-08T04:49:58;10.30;99.90
22161;DHT22;49035;48.812;11.762;2023-08-08T04:52:23;10.40;99.90
22161;DHT22;49035;48.812;11.762;2023-08-08T04:54:49;10.60;99.90
22161;DHT22;49035;48.812;11.762;2023-08-08T04:57:15;10.80;99.90
22161;DHT22;49035;48.812;11.762;2023-08-08T04:59:40;11.00;99.90
22161;DHT22;49035;48.812;11.762;2023-08-08T05:02:06;11.30;99.90
22161;DHT22;49035;48.812;11.762;2023-08-08T05:04:32;11.70;99.90
22161;DHT22;49035;48.812;11.762;2023-08-08T05:06:57;12.10;99.90
22161;DHT22;49035;48.812;11.762;2023-08-08T05:09:23;12.50;99.90
22161;DHT22;49035;48.812;11.762;2023-08-08T05:11:52;12.80;99.90
22161;DHT22;49035;48.812;11.762;2023-08-08T05:14:18;12.80;99.90
22161;DHT22;49035;48.812;11.762;2023-08-08T05:16:44;12.80;99.90
22161;DHT22;49035;48.812;11.762;2023-08-08T05:19:09;12.80;99.90
22161;DHT22;49035;48.812;11.762;2023-08-08T05:21:35;12.80;99.90
22161;DHT22;49035;48.812;11.762;2023-08-08T05:24:00;12.80;99.90
22161;DHT22;49035;48.812;11.762;2023-08-08T05:26:26;12.80;99.90
22161;DHT22;49035;48.812;11.762;2023-08-08T05:28:52;12.90;99.90
22161;DHT22;49035;48.812;11.762;2023-08-08T05:31:17;12.90;99.90
22161;DHT22;49035;48.812;11.762;2023-08-08T05:33:43;13.10;99.90
22161;DHT22;49035;48.812;11.762;2023-08-08T05:36:08;13.20;99.90
22161;DHT22;49035;48.812;11.762;2023-08-08T05:38:34;13.30;99.90
22161;DHT22;49035;48.812;11.762;2023-08-08T05:41:00;13.50;99.90
22161;DHT22;49035;48.812;11.762;2023-08-08T05:43:25;13.60;99.90
22161;DHT22;49035;48.812;11.762;2023-08-08T05:45:53;13.70;99.90
22161;DHT22;49035;48.812;11.762;2023-08-08T05:48:18;14.00;99.90
22161;DHT22;49035;48.812;11.762;2023-08-08T05:50:44;14.40;99.90
22161;DHT22;49035;48.812;11.762;2023-08-08T05:53:09;14.60;99.90
22161;DHT22;49035;48.812;11.762;2023-08-08T05:55:35;14.70;99.90
22161;DHT22;49035;48.812;11.762;2023-08-08T05:58:00;14.70;99.90
22161;DHT22;49035;48.812;11.762;2023-08-08T06:00:26;14.60;99.90
22161;DHT22;49035;48.812;11.762;2023-08-08T06:02:52;14.40;99.90
22161;DHT22;49035;48.812;11.762;2023-08-08T06:05:17;14.30;99.90
22161;DHT22;49035;48.812;11.762;2023-08-08T06:07:44;14.30;99.90
22161;DHT22;49035;48.812;11.762;2023-08-08T06:10:10;14.40;99.90
22161;DHT22;49035;48.812;11.762;2023-08-08T06:12:36;14.60;99.90
22161;DHT22;49035;48.812;11.762;2023-08-08T06:15:01;15.00;99.90
22161;DHT22;49035;48.812;11.762;2023-08-08T06:17:29;15.70;99.90
22161;DHT22;49035;48.812;11.762;2023-08-08T06:19:54;16.20;99.90
22161;DHT22;49035;48.812;11.762;2023-08-08T06:22:22;16.60;99.90
22161;DHT22;49035;48.812;11.762;2023-08-08T06:24:48;17.20;99.90
22161;DHT22;49035;48.812;11.762;2023-08-08T06:27:13;17.80;99.90
22161;DHT22;49035;48.812;11.762;2023-08-08T06:29:39;18.60;99.90
22161;DHT22;49035;48.812;11.762;2023-08-08T06:32:05;19.10;99.90
22161;DHT22;49035;48.812;11.762;2023-08-08T06:34:30;19.70;99.90
22161;DHT22;49035;48.812;11.762;2023-08-08T06:36:56;20.10;99.90
22161;DHT22;49035;48.812;11.762;2023-08-08T06:39:21;20.50;99.90
22161;DHT22;49035;48.812;11.762;2023-08-08T06:41:47;20.80;99.90
22161;DHT22;49035;48.812;11.762;2023-08-08T06:44:13;21.40;99.10
22161;DHT22;49035;48.812;11.762;2023-08-08T06:46:39;21.20;96.90
22161;DHT22;49035;48.812;11.762;2023-08-08T06:49:04;21.20;95.40
22161;DHT22;49035;48.812;11.762;2023-08-08T06:51:32;21.60;96.50
22161;DHT22;49035;48.812;11.762;2023-08-08T06:53:57;21.80;94.80
22161;DHT22;49035;48.812;11.762;2023-08-08T06:56:23;21.40;94.10
22161;DHT22;49035;48.812;11.762;2023-08-08T06:58:49;21.00;93.00
22161;DHT22;49035;48.812;11.762;2023-08-08T07:01:14;20.40;94.90
22161;DHT22;49035;48.812;11.762;2023-08-08T07:03:40;20.10;96.80
22161;DHT22;49035;48.812;11.762;2023-08-08T07:06:05;19.90;96.80
22161;DHT22;49035;48.812;11.762;2023-08-08T07:08:31;19.80;97.70
22161;DHT22;49035;48.812;11.762;2023-08-08T07:10:57;19.80;96.70
22161;DHT22;49035;48.812;11.762;2023-08-08T07:13:23;19.70;97.40
22161;DHT22;49035;48.812;11.762;2023-08-08T07:15:49;19.60;97.40
22161;DHT22;49035;48.812;11.762;2023-08-08T07:18:15;19.40;97.50
22161;DHT22;49035;48.812;11.762;2023-08-08T07:20:40;19.10;99.10
22161;DHT22;49035;48.812;11.762;2023-08-08T07:23:06;19.00;99.60
22161;DHT22;49035;48.812;11.762;2023-08-08T07:25:31;18.80;98.70
22161;DHT22;49035;48.812;11.762;2023-08-08T07:27:57;18.90;99.90
22161;DHT22;49035;48.812;11.762;2023-08-08T07:30:23;19.20;99.70
22161;DHT22;49035;48.812;11.762;2023-08-08T07:32:49;19.60;99.90
22161;DHT22;49035;48.812;11.762;2023-08-08T07:35:15;20.30;98.80
22161;DHT22;49035;48.812;11.762;2023-08-08T07:37:41;20.60;98.00
22161;DHT22;49035;48.812;11.762;2023-08-08T07:40:16;20.70;97.30
22161;DHT22;49035;48.812;11.762;2023-08-08T07:42:46;20.80;96.30
22161;DHT22;49035;48.812;11.762;2023-08-08T07:45:12;20.50;97.20
22161;DHT22;49035;48.812;11.762;2023-08-08T07:47:38;20.20;96.20
22161;DHT22;49035;48.812;11.762;2023-08-08T07:50:03;19.90;97.00
22161;DHT22;49035;48.812;11.762;2023-08-08T07:52:29;19.60;96.30
22161;DHT22;49035;48.812;11.762;2023-08-08T07:54:55;19.30;97.60
22161;DHT22;49035;48.812;11.762;2023-08-08T07:57:20;19.00;98.40
22161;DHT22;49035;48.812;11.762;2023-08-08T07:59:46;19.00;98.50
22161;DHT22;49035;48.812;11.762;2023-08-08T08:02:12;19.20;99.90
22161;DHT22;49035;48.812;11.762;2023-08-08T08:04:37;19.70;98.60
22161;DHT22;49035;48.812;11.762;2023-08-08T08:07:03;20.20;98.40
22161;DHT22;49035;48.812;11.762;2023-08-08T08:09:29;20.60;95.40
22161;DHT22;49035;48.812;11.762;2023-08-08T08:11:54;20.50;96.40
22161;DHT22;49035;48.812;11.762;2023-08-08T08:14:21;20.80;96.70
22161;DHT22;49035;48.812;11.762;2023-08-08T08:16:47;21.10;95.10
22161;DHT22;49035;48.812;11.762;2023-08-08T08:19:13;21.70;95.10
22161;DHT22;49035;48.812;11.762;2023-08-08T08:21:39;22.60;92.50
22161;DHT22;49035;48.812;11.762;2023-08-08T08:24:04;22.90;91.70
22161;DHT22;49035;48.812;11.762;2023-08-08T08:26:31;22.90;90.60
22161;DHT22;49035;48.812;11.762;2023-08-08T08:28:57;22.50;90.50
22161;DHT22;49035;48.812;11.762;2023-08-08T08:31:23;22.20;90.90
22161;DHT22;49035;48.812;11.762;2023-08-08T08:33:48;21.60;91.40
22161;DHT22;49035;48.812;11.762;2023-08-08T08:36:14;21.00;91.10
22161;DHT22;49035;48.812;11.762;2023-08-08T08:38:40;20.20;93.90
22161;DHT22;49035;48.812;11.762;2023-08-08T08:41:05;20.00;94.60
22161;DHT22;49035;48.812;11.762;2023-08-08T08:43:31;19.90;94.50
22161;DHT22;49035;48.812;11.762;2023-08-08T08:46:00;20.20;95.60
22161;DHT22;49035;48.812;11.762;2023-08-08T08:48:28;20.60;95.80
22161;DHT22;49035;48.812;11.762;2023-08-08T08:50:53;21.20;94.40
22161;DHT22;49035;48.812;11.762;2023-08-08T08:53:19;21.40;94.60
22161;DHT22;49035;48.812;11.762;2023-08-08T08:55:46;21.80;92.20
22161;DHT22;49035;48.812;11.762;2023-08-08T08:58:14;21.30;90.20
22161;DHT22;49035;48.812;11.762;2023-08-08T09:00:43;21.20;91.70
22161;DHT22;49035;48.812;11.762;2023-08-08T09:03:09;21.40;90.00
22161;DHT22;49035;48.812;11.762;2023-08-08T09:05:35;21.30;90.20
22161;DHT22;49035;48.812;11.762;2023-08-08T09:08:02;21.30;91.20
22161;DHT22;49035;48.812;11.762;2023-08-08T09:10:30;21.50;90.20
22161;DHT22;49035;48.812;11.762;2023-08-08T09:12:57;21.70;91.20
22161;DHT22;49035;48.812;11.762;2023-08-08T09:15:22;22.50;88.40
22161;DHT22;49035;48.812;11.762;2023-08-08T09:17:48;22.80;86.40
22161;DHT22;49035;48.812;11.762;2023-08-08T09:20:14;22.80;83.30
22161;DHT22;49035;48.812;11.762;2023-08-08T09:22:40;22.80;85.50
22161;DHT22;49035;48.812;11.762;2023-08-08T09:25:06;22.70;85.10
22161;DHT22;49035;48.812;11.762;2023-08-08T09:27:33;22.50;82.90
22161;DHT22;49035;48.812;11.762;2023-08-08T09:29:59;22.20;88.30
22161;DHT22;49035;48.812;11.762;2023-08-08T09:32:31;22.10;86.90
22161;DHT22;49035;48.812;11.762;2023-08-08T09:34:57;22.10;82.10
22161;DHT22;49035;48.812;11.762;2023-08-08T09:37:23;22.20;85.70
22161;DHT22;49035;48.812;11.762;2023-08-08T09:39:59;22.50;84.50
22161;DHT22;49035;48.812;11.762;2023-08-08T09:42:26;22.50;86.70
22161;DHT22;49035;48.812;11.762;2023-08-08T09:44:52;22.80;84.20
22161;DHT22;49035;48.812;11.762;2023-08-08T09:47:18;22.90;81.30
22161;DHT22;49035;48.812;11.762;2023-08-08T09:49:44;22.50;85.50
22161;DHT22;49035;48.812;11.762;2023-08-08T09:52:10;22.50;82.70
22161;DHT22;49035;48.812;11.762;2023-08-08T09:54:37;22.10;80.60
22161;DHT22;49035;48.812;11.762;2023-08-08T09:57:04;21.60;81.40
22161;DHT22;49035;48.812;11.762;2023-08-08T09:59:31;21.10;84.00
22161;DHT22;49035;48.812;11.762;2023-08-08T10:01:57;21.20;82.00
22161;DHT22;49035;48.812;11.762;2023-08-08T10:04:24;21.50;84.10
22161;DHT22;49035;48.812;11.762;2023-08-08T10:06:49;22.00;82.80
22161;DHT22;49035;48.812;11.762;2023-08-08T10:09:15;22.40;84.60
22161;DHT22;49035;48.812;11.762;2023-08-08T10:11:42;22.80;81.80
22161;DHT22;49035;48.812;11.762;2023-08-08T10:14:09;22.80;79.00
22161;DHT22;49035;48.812;11.762;2023-08-08T10:16:37;22.80;82.20
22161;DHT22;49035;48.812;11.762;2023-08-08T10:19:04;23.20;76.10
22161;DHT22;49035;48.812;11.762;2023-08-08T10:21:34;22.70;80.60
22161;DHT22;49035;48.812;11.762;2023-08-08T10:24:08;22.60;82.70
22161;DHT22;49035;48.812;11.762;2023-08-08T10:26:34;23.30;81.70
22161;DHT22;49035;48.812;11.762;2023-08-08T10:29:19;23.90;75.40
22161;DHT22;49035;48.812;11.762;2023-08-08T10:31:57;23.60;73.80
22161;DHT22;49035;48.812;11.762;2023-08-08T10:34:36;23.10;75.40
22161;DHT22;49035;48.812;11.762;2023-08-08T10:37:05;23.10;75.60
22161;DHT22;49035;48.812;11.762;2023-08-08T10:39:31;23.00;77.30
22161;DHT22;49035;48.812;11.762;2023-08-08T10:42:02;23.40;77.00
22161;DHT22;49035;48.812;11.762;2023-08-08T10:44:29;23.50;73.60
22161;DHT22;49035;48.812;11.762;2023-08-08T10:46:56;23.80;75.10
22161;DHT22;49035;48.812;11.762;2023-08-08T10:49:21;23.50;73.50
22161;DHT22;49035;48.812;11.762;2023-08-08T10:51:49;23.60;74.20
22161;DHT22;49035;48.812;11.762;2023-08-08T10:54:23;23.70;75.30
22161;DHT22;49035;48.812;11.762;2023-08-08T10:56:54;24.20;73.80
22161;DHT22;49035;48.812;11.762;2023-08-08T10:59:26;24.30;74.20
22161;DHT22;49035;48.812;11.762;2023-08-08T11:01:53;24.80;70.00
22161;DHT22;49035;48.812;11.762;2023-08-08T11:04:21;25.30;71.60
22161;DHT22;49035;48.812;11.762;2023-08-08T11:06:47;25.30;66.60
22161;DHT22;49035;48.812;11.762;2023-08-08T11:09:14;25.00;68.10
22161;DHT22;49035;48.812;11.762;2023-08-08T11:11:41;24.30;66.70
22161;DHT22;49035;48.812;11.762;2023-08-08T11:14:15;23.60;71.10
22161;DHT22;49035;48.812;11.762;2023-08-08T11:16:42;23.60;73.00
22161;DHT22;49035;48.812;11.762;2023-08-08T11:19:08;23.70;73.80
22161;DHT22;49035;48.812;11.762;2023-08-08T11:21:36;23.90;73.60
22161;DHT22;49035;48.812;11.762;2023-08-08T11:24:03;24.00;71.60
22161;DHT22;49035;48.812;11.762;2023-08-08T11:26:29;23.90;71.70
22161;DHT22;49035;48.812;11.762;2023-08-08T11:28:59;23.50;70.70
22161;DHT22;49035;48.812;11.762;2023-08-08T11:31:24;23.30;70.70
22161;DHT22;49035;48.812;11.762;2023-08-08T11:33:50;23.40;71.40
22161;DHT22;49035;48.812;11.762;2023-08-08T11:36:16;23.40;72.30
22161;DHT22;49035;48.812;11.762;2023-08-08T11:38:42;23.80;75.10
22161;DHT22;49035;48.812;11.762;2023-08-08T11:41:10;23.30;69.80
22161;DHT22;49035;48.812;11.762;2023-08-08T11:43:37;23.20;72.10
22161;DHT22;49035;48.812;11.762;2023-08-08T11:46:03;23.40;71.50
22161;DHT22;49035;48.812;11.762;2023-08-08T11:48:32;23.30;71.70
22161;DHT22;49035;48.812;11.762;2023-08-08T11:50:58;23.10;75.70
22161;DHT22;49035;48.812;11.762;2023-08-08T11:53:24;23.20;70.80
22161;DHT22;49035;48.812;11.762;2023-08-08T11:55:49;23.80;74.60
22161;DHT22;49035;48.812;11.762;2023-08-08T11:58:15;24.00;70.00
22161;DHT22;49035;48.812;11.762;2023-08-08T12:00:43;23.60;67.30
22161;DHT22;49035;48.812;11.762;2023-08-08T12:03:11;23.20;73.20
22161;DHT22;49035;48.812;11.762;2023-08-08T12:05:39;23.40;72.60
22161;DHT22;49035;48.812;11.762;2023-08-08T12:08:06;23.20;71.60
22161;DHT22;49035;48.812;11.762;2023-08-08T12:10:32;23.60;71.80
22161;DHT22;49035;48.812;11.762;2023-08-08T12:12:58;24.20;70.60
22161;DHT22;49035;48.812;11.762;2023-08-08T12:15:35;24.80;70.20
22161;DHT22;49035;48.812;11.762;2023-08-08T12:18:02;24.50;68.80
22161;DHT22;49035;48.812;11.762;2023-08-08T12:20:29;23.60;66.80
22161;DHT22;49035;48.812;11.762;2023-08-08T12:22:55;22.40;70.20
22161;DHT22;49035;48.812;11.762;2023-08-08T12:25:20;22.10;70.40
22161;DHT22;49035;48.812;11.762;2023-08-08T12:27:46;22.50;75.70
22161;DHT22;49035;48.812;11.762;2023-08-08T12:30:12;23.00;71.70
22161;DHT22;49035;48.812;11.762;2023-08-08T12:32:37;23.20;66.80
22161;DHT22;49035;48.812;11.762;2023-08-08T12:35:03;23.40;68.50
22161;DHT22;49035;48.812;11.762;2023-08-08T12:37:29;24.20;66.80
22161;DHT22;49035;48.812;11.762;2023-08-08T12:39:55;24.60;65.80
22161;DHT22;49035;48.812;11.762;2023-08-08T12:42:20;24.00;63.10
22161;DHT22;49035;48.812;11.762;2023-08-08T12:44:46;23.40;63.30
22161;DHT22;49035;48.812;11.762;2023-08-08T12:47:12;23.50;66.50
22161;DHT22;49035;48.812;11.762;2023-08-08T12:49:38;24.00;66.10
22161;DHT22;49035;48.812;11.762;2023-08-08T12:52:04;24.00;62.80
22161;DHT22;49035;48.812;11.762;2023-08-08T12:54:29;23.70;64.10
22161;DHT22;49035;48.812;11.762;2023-08-08T12:56:55;24.10;65.50
22161;DHT22;49035;48.812;11.762;2023-08-08T12:59:21;24.70;64.10
22161;DHT22;49035;48.812;11.762;2023-08-08T13:01:47;24.90;61.40
22161;DHT22;49035;48.812;11.762;2023-08-08T13:04:12;24.50;59.00
22161;DHT22;49035;48.812;11.762;2023-08-08T13:06:38;24.40;59.50
22161;DHT22;49035;48.812;11.762;2023-08-08T13:09:04;23.70;59.50
22161;DHT22;49035;48.812;11.762;2023-08-08T13:11:29;22.80;63.50
22161;DHT22;49035;48.812;11.762;2023-08-08T13:13:55;22.60;65.30
22161;DHT22;49035;48.812;11.762;2023-08-08T13:16:21;23.30;65.40
22161;DHT22;49035;48.812;11.762;2023-08-08T13:18:46;23.80;64.00
22161;DHT22;49035;48.812;11.762;2023-08-08T13:21:12;24.30;61.90
22161;DHT22;49035;48.812;11.762;2023-08-08T13:23:40;24.60;62.00
22161;DHT22;49035;48.812;11.762;2023-08-08T13:26:05;24.10;60.80
22161;DHT22;49035;48.812;11.762;2023-08-08T13:28:31;23.50;59.70
22161;DHT22;49035;48.812;11.762;2023-08-08T13:30:57;23.30;61.10
22161;DHT22;49035;48.812;11.762;2023-08-08T13:33:22;23.40;61.00
22161;DHT22;49035;48.812;11.762;2023-08-08T13:35:48;23.40;62.40
22161;DHT22;49035;48.812;11.762;2023-08-08T13:38:13;23.50;61.60
22161;DHT22;49035;48.812;11.762;2023-08-08T13:40:43;23.90;61.70
22161;DHT22;49035;48.812;11.762;2023-08-08T13:43:09;24.10;61.50
22161;DHT22;49035;48.812;11.762;2023-08-08T13:45:35;24.20;63.70
22161;DHT22;49035;48.812;11.762;2023-08-08T13:48:01;24.40;62.40
22161;DHT22;49035;48.812;11.762;2023-08-08T13:50:26;24.90;61.20
22161;DHT22;49035;48.812;11.762;2023-08-08T13:52:54;25.00;58.50
22161;DHT22;49035;48.812;11.762;2023-08-08T13:55:19;24.50;58.40
22161;DHT22;49035;48.812;11.762;2023-08-08T13:57:45;24.40;58.80
22161;DHT22;49035;48.812;11.762;2023-08-08T14:00:11;24.50;61.10
22161;DHT22;49035;48.812;11.762;2023-08-08T14:02:38;24.70;59.90
22161;DHT22;49035;48.812;11.762;2023-08-08T14:05:04;24.90;57.30
22161;DHT22;49035;48.812;11.762;2023-08-08T14:07:33;24.60;56.10
22161;DHT22;49035;48.812;11.762;2023-08-08T14:09:59;24.30;58.60
22161;DHT22;49035;48.812;11.762;2023-08-08T14:12:25;24.30;56.70
22161;DHT22;49035;48.812;11.762;2023-08-08T14:14:50;24.20;57.10
22161;DHT22;49035;48.812;11.762;2023-08-08T14:17:16;24.00;59.00
22161;DHT22;49035;48.812;11.762;2023-08-08T14:19:41;24.50;59.90
22161;DHT22;49035;48.812;11.762;2023-08-08T14:22:07;24.40;59.20
22161;DHT22;49035;48.812;11.762;2023-08-08T14:24:32;24.30;58.80
22161;DHT22;49035;48.812;11.762;2023-08-08T14:26:58;23.60;59.10
22161;DHT22;49035;48.812;11.762;2023-08-08T14:29:24;23.40;61.90
22161;DHT22;49035;48.812;11.762;2023-08-08T14:31:49;23.70;61.80
22161;DHT22;49035;48.812;11.762;2023-08-08T14:34:15;23.70;61.80
22161;DHT22;49035;48.812;11.762;2023-08-08T14:36:40;23.90;62.40
22161;DHT22;49035;48.812;11.762;2023-08-08T14:39:07;24.00;61.20
22161;DHT22;49035;48.812;11.762;2023-08-08T14:41:32;23.90;61.20
22161;DHT22;49035;48.812;11.762;2023-08-08T14:43:58;23.40;60.00
22161;DHT22;49035;48.812;11.762;2023-08-08T14:46:24;23.00;60.70
22161;DHT22;49035;48.812;11.762;2023-08-08T14:48:50;22.80;61.50
22161;DHT22;49035;48.812;11.762;2023-08-08T14:51:15;22.80;62.10
22161;DHT22;49035;48.812;11.762;2023-08-08T14:53:44;23.00;63.20
22161;DHT22;49035;48.812;11.762;2023-08-08T14:56:10;22.70;63.00
22161;DHT22;49035;48.812;11.762;2023-08-08T14:58:36;22.60;62.60
22161;DHT22;49035;48.812;11.762;2023-08-08T15:01:01;22.30;63.60
22161;DHT22;49035;48.812;11.762;2023-08-08T15:03:27;22.20;64.30
22161;DHT22;49035;48.812;11.762;2023-08-08T15:05:53;22.20;63.50
22161;DHT22;49035;48.812;11.762;2023-08-08T15:08:19;22.30;63.80
22161;DHT22;49035;48.812;11.762;2023-08-08T15:10:44;22.30;64.40
22161;DHT22;49035;48.812;11.762;2023-08-08T15:13:10;22.80;64.80
22161;DHT22;49035;48.812;11.762;2023-08-08T15:15:36;22.90;64.00
22161;DHT22;49035;48.812;11.762;2023-08-08T15:18:01;23.10;64.20